createdAt,value
2017-05-17T00:00:06.844Z,49.22
2017-05-17T00:01:16.794Z,49.32
2017-05-17T00:02:26.427Z,49.7
2017-05-17T00:03:36.694Z,49.6
2017-05-17T00:04:46.977Z,49.32
2017-05-17T00:05:57.245Z,49.6
2017-05-17T00:07:07.206Z,49.12
2017-05-17T00:08:17.156Z,49.6
2017-05-17T00:09:27.165Z,49.51
2017-05-17T00:10:37.426Z,49.6
2017-05-17T00:11:47.708Z,49.12
2017-05-17T00:12:57.964Z,49.41
2017-05-17T00:14:08.235Z,49.02
2017-05-17T00:15:17.872Z,49.32
2017-05-17T00:16:28.132Z,49.41
2017-05-17T00:17:38.395Z,49.22
2017-05-17T00:18:48.358Z,49.41
2017-05-17T00:19:58.627Z,49.41
2017-05-17T00:21:08.260Z,49.41
2017-05-17T00:22:18.222Z,49.6
2017-05-17T00:23:28.180Z,49.12
2017-05-17T00:24:38.128Z,49.32
2017-05-17T00:25:48.400Z,49.51
2017-05-17T00:26:58.352Z,49.32
2017-05-17T00:28:08.307Z,49.41
2017-05-17T00:29:18.260Z,49.41
2017-05-17T00:30:28.217Z,49.51
2017-05-17T00:31:38.480Z,49.51
2017-05-17T00:32:48.431Z,49.12
2017-05-17T00:33:58.382Z,49.22
2017-05-17T00:35:08.336Z,49.22
2017-05-17T00:36:18.604Z,49.32
2017-05-17T00:37:28.239Z,49.32
2017-05-17T00:38:38.502Z,49.12
2017-05-17T00:39:48.455Z,49.41
2017-05-17T00:40:58.731Z,49.41
2017-05-17T00:42:08.990Z,49.41
2017-05-17T00:43:19.267Z,49.32
2017-05-17T00:44:29.532Z,49.41
2017-05-17T00:45:39.485Z,49.41
2017-05-17T00:46:49.430Z,49.32
2017-05-17T00:47:59.694Z,49.12
2017-05-17T00:49:09.337Z,49.12
2017-05-17T00:50:19.023Z,49.32
2017-05-17T00:51:29.297Z,49.6
2017-05-17T00:52:39.566Z,49.41
2017-05-17T00:53:49.825Z,49.6
2017-05-17T00:55:00.096Z,49.51
2017-05-17T00:56:09.735Z,49.7
2017-05-17T00:57:19.689Z,49.51
2017-05-17T00:58:29.646Z,49.7
2017-05-17T00:59:39.912Z,49.41
2017-05-17T01:00:50.178Z,49.32
2017-05-17T01:02:00.135Z,49.51
2017-05-17T01:03:10.412Z,49.6
2017-05-17T01:04:20.746Z,49.41
2017-05-17T01:05:31.019Z,49.51
2017-05-17T01:06:40.972Z,49.41
2017-05-17T01:07:51.242Z,49.12
2017-05-17T01:09:01.510Z,49.32
2017-05-17T01:10:11.516Z,49.41
2017-05-17T01:11:21.787Z,49.51
2017-05-17T01:12:31.418Z,49.51
2017-05-17T01:13:41.731Z,49.12
2017-05-17T01:14:51.997Z,49.22
2017-05-17T01:16:01.647Z,49.12
2017-05-17T01:17:11.645Z,49.41
2017-05-17T01:18:21.916Z,49.32
2017-05-17T01:19:31.867Z,49.41
2017-05-17T01:20:42.184Z,48.93
2017-05-17T01:21:52.450Z,48.93
2017-05-17T01:23:02.403Z,49.12
2017-05-17T01:24:12.681Z,49.12
2017-05-17T01:25:22.945Z,49.02
2017-05-17T01:26:33.213Z,49.12
2017-05-17T01:27:43.476Z,49.22
2017-05-17T01:28:53.750Z,49.41
2017-05-17T01:30:04.013Z,49.32
2017-05-17T01:31:13.652Z,49.22
2017-05-17T01:32:23.597Z,49.41
2017-05-17T01:33:33.559Z,49.41
2017-05-17T01:34:43.567Z,49.12
2017-05-17T01:35:53.521Z,49.22
2017-05-17T01:37:03.476Z,49.12
2017-05-17T01:38:13.112Z,49.12
2017-05-17T01:39:23.376Z,49.41
2017-05-17T01:40:33.647Z,49.41
2017-05-17T01:41:43.922Z,49.32
2017-05-17T01:42:53.872Z,49.32
2017-05-17T01:44:03.831Z,49.22
2017-05-17T01:45:13.474Z,49.22
2017-05-17T01:46:23.438Z,49.22
2017-05-17T01:47:33.703Z,49.02
2017-05-17T01:48:43.342Z,49.41
2017-05-17T01:49:53.293Z,49.41
2017-05-17T01:51:03.593Z,49.51
2017-05-17T01:52:13.858Z,49.32
2017-05-17T01:53:24.123Z,49.51
2017-05-17T01:54:34.407Z,49.32
2017-05-17T01:55:44.362Z,49.22
2017-05-17T01:56:54.629Z,49.51
2017-05-17T01:58:03.953Z,49.32
2017-05-17T01:59:13.901Z,49.22
2017-05-17T02:00:23.854Z,49.12
2017-05-17T02:01:33.496Z,49.51
2017-05-17T02:02:43.767Z,49.51
2017-05-17T02:03:54.061Z,48.93
2017-05-17T02:05:04.331Z,49.32
2017-05-17T02:06:14.599Z,49.32
2017-05-17T02:07:24.870Z,49.02
2017-05-17T02:08:34.509Z,49.02
2017-05-17T02:09:44.784Z,49.12
2017-05-17T02:10:54.427Z,48.93
2017-05-17T02:12:04.694Z,49.32
2017-05-17T02:13:14.957Z,49.51
2017-05-17T02:14:24.903Z,48.93
2017-05-17T02:15:34.863Z,49.12
2017-05-17T02:16:45.129Z,48.93
2017-05-17T02:17:55.399Z,48.93
2017-05-17T02:19:05.352Z,48.64
2017-05-17T02:20:14.684Z,48.93
2017-05-17T02:21:24.319Z,48.83
2017-05-17T02:22:34.585Z,48.93
2017-05-17T02:23:44.855Z,48.83
2017-05-17T02:24:55.129Z,48.64
2017-05-17T02:26:05.087Z,48.64
2017-05-17T02:27:15.036Z,48.83
2017-05-17T02:28:24.984Z,48.93
2017-05-17T02:29:35.248Z,48.64
2017-05-17T02:30:45.520Z,48.74
2017-05-17T02:31:55.780Z,48.64
2017-05-17T02:33:06.049Z,48.54
2017-05-17T02:34:15.691Z,48.74
2017-05-17T02:35:25.645Z,48.64
2017-05-17T02:36:35.283Z,48.74
2017-05-17T02:37:45.234Z,49.02
2017-05-17T02:38:55.492Z,49.02
2017-05-17T02:40:05.759Z,48.74
2017-05-17T02:41:16.020Z,48.74
2017-05-17T02:42:26.287Z,48.54
2017-05-17T02:43:36.553Z,48.74
2017-05-17T02:44:46.510Z,48.64
2017-05-17T02:45:56.777Z,48.54
2017-05-17T02:47:07.038Z,48.54
2017-05-17T02:48:16.991Z,49.02
2017-05-17T02:49:27.266Z,48.44
2017-05-17T02:50:37.218Z,48.44
2017-05-17T02:51:47.170Z,48.44
2017-05-17T02:52:57.130Z,48.54
2017-05-17T02:54:07.399Z,48.93
2017-05-17T02:55:16.724Z,48.64
2017-05-17T02:56:26.695Z,48.54
2017-05-17T02:57:36.648Z,48.16
2017-05-17T02:58:46.601Z,48.93
2017-05-17T02:59:56.873Z,48.74
2017-05-17T03:01:07.152Z,48.54
2017-05-17T03:02:17.409Z,48.44
2017-05-17T03:03:27.681Z,48.54
2017-05-17T03:04:37.631Z,48.64
2017-05-17T03:05:47.901Z,48.64
2017-05-17T03:06:57.540Z,48.64
2017-05-17T03:08:07.805Z,48.64
2017-05-17T03:09:17.442Z,48.74
2017-05-17T03:10:27.396Z,48.74
2017-05-17T03:11:37.668Z,48.54
2017-05-17T03:12:47.936Z,48.54
2017-05-17T03:13:58.205Z,48.64
2017-05-17T03:15:08.481Z,48.74
2017-05-17T03:16:18.749Z,48.64
2017-05-17T03:17:28.399Z,48.64
2017-05-17T03:18:38.671Z,48.25
2017-05-17T03:19:48.629Z,48.44
2017-05-17T03:20:58.893Z,48.74
2017-05-17T03:22:08.845Z,48.54
2017-05-17T03:23:18.796Z,48.44
2017-05-17T03:24:28.751Z,48.64
2017-05-17T03:25:39.025Z,48.54
2017-05-17T03:26:48.980Z,48.06
2017-05-17T03:27:58.669Z,48.25
2017-05-17T03:29:08.935Z,48.35
2017-05-17T03:30:19.204Z,48.25
2017-05-17T03:31:28.839Z,48.44
2017-05-17T03:32:39.111Z,48.64
2017-05-17T03:33:48.774Z,48.25
2017-05-17T03:34:58.462Z,48.16
2017-05-17T03:36:08.420Z,48.16
2017-05-17T03:37:18.690Z,48.06
2017-05-17T03:38:28.946Z,48.35
2017-05-17T03:39:38.600Z,48.35
2017-05-17T03:40:48.245Z,48.35
2017-05-17T03:41:58.517Z,48.16
2017-05-17T03:43:08.466Z,48.44
2017-05-17T03:44:18.733Z,48.35
2017-05-17T03:45:28.684Z,48.25
2017-05-17T03:46:38.951Z,48.44
2017-05-17T03:47:49.212Z,48.25
2017-05-17T03:48:59.470Z,48.06
2017-05-17T03:50:09.420Z,48.25
2017-05-17T03:51:19.369Z,48.54
2017-05-17T03:52:29.324Z,48.16
2017-05-17T03:53:39.602Z,48.35
2017-05-17T03:54:49.605Z,48.16
2017-05-17T03:55:59.555Z,48.35
2017-05-17T03:57:09.504Z,48.35
2017-05-17T03:58:19.769Z,48.25
2017-05-17T03:59:29.733Z,48.35
2017-05-17T04:00:40.004Z,48.16
2017-05-17T04:01:49.953Z,48.44
2017-05-17T04:03:00.225Z,48.35
2017-05-17T04:04:09.858Z,48.25
2017-05-17T04:05:20.124Z,48.44
2017-05-17T04:06:30.388Z,48.25
2017-05-17T04:07:40.675Z,48.25
2017-05-17T04:08:50.940Z,48.44
2017-05-17T04:10:00.338Z,48.06
2017-05-17T04:11:10.659Z,48.25
2017-05-17T04:12:20.919Z,48.25
2017-05-17T04:13:30.899Z,48.16
2017-05-17T04:14:40.543Z,48.35
2017-05-17T04:15:50.183Z,48.64
2017-05-17T04:16:59.820Z,49.02
2017-05-17T04:18:10.085Z,48.44
2017-05-17T04:19:20.352Z,48.74
2017-05-17T04:20:30.301Z,48.44
2017-05-17T04:21:40.572Z,48.16
2017-05-17T04:22:50.535Z,48.35
2017-05-17T04:24:00.809Z,48.35
2017-05-17T04:25:11.081Z,48.25
2017-05-17T04:26:21.037Z,48.25
2017-05-17T04:27:30.991Z,48.64
2017-05-17T04:28:40.952Z,48.64
2017-05-17T04:29:51.219Z,48.35
2017-05-17T04:31:01.487Z,48.35
2017-05-17T04:32:11.438Z,48.74
2017-05-17T04:33:21.391Z,48.35
2017-05-17T04:34:31.344Z,48.83
2017-05-17T04:35:40.985Z,48.64
2017-05-17T04:36:51.278Z,48.54
2017-05-17T04:38:01.239Z,48.54
2017-05-17T04:39:11.193Z,49.02
2017-05-17T04:40:21.456Z,49.41
2017-05-17T04:41:30.783Z,49.22
2017-05-17T04:42:41.048Z,49.12
2017-05-17T04:43:50.990Z,48.54
2017-05-17T04:45:01.257Z,48.44
2017-05-17T04:46:11.528Z,48.64
2017-05-17T04:47:21.501Z,48.35
2017-05-17T04:48:31.446Z,48.64
2017-05-17T04:49:41.083Z,48.64
2017-05-17T04:50:51.031Z,48.54
2017-05-17T04:52:01.295Z,48.64
2017-05-17T04:53:11.249Z,48.44
2017-05-17T04:54:21.522Z,48.83
2017-05-17T04:55:31.799Z,48.64
2017-05-17T04:56:42.061Z,48.83
2017-05-17T04:57:51.737Z,48.74
2017-05-17T04:59:02.003Z,48.64
2017-05-17T05:00:12.269Z,48.25
2017-05-17T05:01:22.531Z,48.44
2017-05-17T05:02:32.482Z,48.25
2017-05-17T05:03:42.433Z,48.06
2017-05-17T05:04:52.390Z,48.44
2017-05-17T05:06:02.658Z,48.93
2017-05-17T05:07:12.919Z,48.35
2017-05-17T05:08:22.868Z,48.25
2017-05-17T05:09:33.138Z,48.25
2017-05-17T05:10:43.403Z,48.25
2017-05-17T05:11:53.670Z,48.25
2017-05-17T05:13:03.942Z,48.35
2017-05-17T05:14:13.908Z,48.44
2017-05-17T05:15:23.545Z,48.25
2017-05-17T05:16:33.493Z,48.35
2017-05-17T05:17:43.445Z,48.44
2017-05-17T05:18:53.714Z,48.54
2017-05-17T05:20:03.664Z,48.74
2017-05-17T05:21:13.931Z,48.74
2017-05-17T05:22:24.202Z,48.44
2017-05-17T05:23:34.474Z,48.35
2017-05-17T05:24:44.434Z,48.54
2017-05-17T05:25:54.701Z,48.35
2017-05-17T05:27:04.962Z,48.35
2017-05-17T05:28:14.913Z,48.16
2017-05-17T05:29:25.181Z,48.64
2017-05-17T05:30:35.458Z,49.02
2017-05-17T05:31:45.716Z,48.35
2017-05-17T05:32:55.982Z,48.44
2017-05-17T05:34:05.934Z,48.25
2017-05-17T05:35:16.199Z,48.06
2017-05-17T05:36:26.153Z,48.25
2017-05-17T05:37:36.132Z,48.16
2017-05-17T05:38:46.407Z,47.87
2017-05-17T05:39:56.678Z,48.35
2017-05-17T05:41:06.946Z,48.06
2017-05-17T05:42:16.898Z,48.16
2017-05-17T05:43:26.858Z,48.16
2017-05-17T05:44:37.136Z,48.06
2017-05-17T05:45:47.402Z,47.97
2017-05-17T05:46:57.668Z,48.06
2017-05-17T05:48:07.636Z,48.25
2017-05-17T05:49:17.920Z,48.25
2017-05-17T05:50:28.196Z,48.06
2017-05-17T05:51:38.147Z,48.06
2017-05-17T05:52:48.103Z,48.06
2017-05-17T05:53:58.381Z,48.25
2017-05-17T05:55:08.655Z,48.25
2017-05-17T05:56:18.953Z,47.97
2017-05-17T05:57:28.899Z,47.87
2017-05-17T05:58:39.169Z,47.49
2017-05-17T05:59:49.122Z,48.25
2017-05-17T06:00:59.398Z,48.16
2017-05-17T06:02:09.036Z,48.25
2017-05-17T06:03:18.988Z,48.16
2017-05-17T06:04:29.249Z,48.16
2017-05-17T06:05:39.516Z,48.93
2017-05-17T06:06:49.790Z,48.54
2017-05-17T06:07:59.428Z,48.64
2017-05-17T06:09:09.699Z,48.44
2017-05-17T06:10:19.341Z,48.57
2017-05-17T06:11:29.601Z,48.57
2017-05-17T06:12:39.238Z,48.57
2017-05-17T06:13:49.509Z,48.38
2017-05-17T06:14:59.456Z,48.06
2017-05-17T06:16:09.402Z,48.28
2017-05-17T06:17:19.351Z,47.8
2017-05-17T06:18:28.995Z,48.28
2017-05-17T06:19:39.257Z,47.8
2017-05-17T06:20:49.213Z,47.77
2017-05-17T06:21:59.485Z,48.06
2017-05-17T06:23:09.123Z,48.54
2017-05-17T06:24:19.397Z,48.47
2017-05-17T06:25:29.038Z,48.76
2017-05-17T06:26:38.677Z,48.38
2017-05-17T06:27:48.627Z,48.08
2017-05-17T06:28:58.579Z,47.8
2017-05-17T06:30:08.534Z,48.18
2017-05-17T06:31:18.802Z,47.31
2017-05-17T06:32:28.753Z,47.89
2017-05-17T06:33:39.026Z,47.7
2017-05-17T06:34:49.292Z,47.8
2017-05-17T06:35:59.245Z,47.99
2017-05-17T06:37:09.196Z,47.99
2017-05-17T06:38:18.835Z,48.66
2017-05-17T06:39:28.477Z,48.08
2017-05-17T06:40:38.749Z,48.86
2017-05-17T06:41:48.074Z,49.05
2017-05-17T06:42:58.342Z,48.66
2017-05-17T06:44:08.311Z,48.57
2017-05-17T06:45:18.270Z,48.28
2017-05-17T06:46:27.906Z,48.38
2017-05-17T06:47:38.183Z,48.28
2017-05-17T06:48:48.444Z,47.89
2017-05-17T06:49:58.722Z,48.08
2017-05-17T06:51:08.994Z,47.41
2017-05-17T06:52:18.643Z,47.31
2017-05-17T06:53:28.592Z,47.41
2017-05-17T06:54:38.868Z,47.6
2017-05-17T06:55:49.181Z,46.73
2017-05-17T06:56:59.499Z,46.45
2017-05-17T06:58:09.441Z,46.45
2017-05-17T06:59:19.407Z,46.06
2017-05-17T07:00:29.671Z,45.1
2017-05-17T07:01:39.938Z,45.48
2017-05-17T07:02:48.951Z,45.97
2017-05-17T07:03:58.910Z,45.97
2017-05-17T07:05:08.869Z,45.58
2017-05-17T07:06:18.508Z,46.15
2017-05-17T07:07:28.764Z,45.2
2017-05-17T07:08:38.719Z,45.48
2017-05-17T07:09:48.727Z,45.1
2017-05-17T07:10:59.002Z,45.21
2017-05-17T07:12:08.643Z,45.1
2017-05-17T07:13:18.601Z,44.73
2017-05-17T07:14:28.870Z,44.83
2017-05-17T07:15:39.141Z,44.25
2017-05-17T07:16:48.782Z,44.83
2017-05-17T07:17:58.733Z,45.6
2017-05-17T07:19:08.685Z,45.12
2017-05-17T07:20:18.640Z,45.99
2017-05-17T07:21:28.599Z,45.99
2017-05-17T07:22:38.881Z,45.31
2017-05-17T07:23:48.526Z,45.31
2017-05-17T07:24:58.486Z,44.83
2017-05-17T07:26:08.442Z,44.64
2017-05-17T07:27:18.393Z,45.03
2017-05-17T07:28:28.384Z,45.6
2017-05-17T07:29:38.338Z,43.87
2017-05-17T07:30:47.972Z,43.1
2017-05-17T07:31:57.927Z,44.25
2017-05-17T07:33:08.213Z,44.45
2017-05-17T07:34:17.850Z,44.25
2017-05-17T07:35:27.796Z,44.83
2017-05-17T07:36:37.437Z,45.51
2017-05-17T07:37:47.393Z,45.12
2017-05-17T07:38:57.027Z,45.99
2017-05-17T07:40:06.976Z,44.83
2017-05-17T07:41:16.610Z,45.12
2017-05-17T07:42:26.559Z,45.89
2017-05-17T07:43:36.515Z,45.31
2017-05-17T07:44:46.463Z,46.18
2017-05-17T07:45:56.730Z,45.79
2017-05-17T07:47:06.363Z,46.76
2017-05-17T07:48:16.317Z,46.47
2017-05-17T07:49:26.267Z,46.47
2017-05-17T07:50:36.536Z,46.59
2017-05-17T07:51:46.181Z,47.05
2017-05-17T07:52:56.136Z,47.34
2017-05-17T07:54:06.405Z,47.44
2017-05-17T07:55:16.042Z,47.24
2017-05-17T07:56:26.304Z,47.53
2017-05-17T07:57:36.254Z,47.63
2017-05-17T07:58:46.203Z,47.53
2017-05-17T07:59:56.151Z,47.72
2017-05-17T08:01:06.107Z,47.89
2017-05-17T08:02:16.057Z,47.82
2017-05-17T08:03:26.327Z,47.63
2017-05-17T08:04:36.594Z,47.92
2017-05-17T08:05:46.862Z,47.82
2017-05-17T08:06:56.817Z,47.82
2017-05-17T08:08:07.085Z,47.82
2017-05-17T08:09:16.404Z,48.3
2017-05-17T08:10:26.679Z,48.01
2017-05-17T08:11:36.944Z,47.72
2017-05-17T08:12:46.891Z,48.3
2017-05-17T08:13:56.536Z,48.4
2017-05-17T08:15:06.494Z,48.3
2017-05-17T08:16:16.757Z,48.01
2017-05-17T08:17:26.756Z,48.3
2017-05-17T08:18:36.713Z,48.08
2017-05-17T08:19:46.659Z,48.3
2017-05-17T08:20:56.935Z,48.28
2017-05-17T08:22:06.888Z,48.4
2017-05-17T08:23:17.170Z,48.4
2017-05-17T08:24:27.443Z,48.01
2017-05-17T08:25:37.706Z,48.3
2017-05-17T08:26:47.655Z,48.4
2017-05-17T08:27:57.920Z,48.21
2017-05-17T08:29:07.865Z,48.4
2017-05-17T08:30:18.124Z,48.3
2017-05-17T08:31:27.760Z,48.21
2017-05-17T08:32:38.027Z,48.3
2017-05-17T08:33:47.671Z,48.38
2017-05-17T08:34:57.310Z,48.3
2017-05-17T08:36:06.948Z,48.57
2017-05-17T08:37:16.907Z,48.28
2017-05-17T08:38:26.861Z,48.3
2017-05-17T08:39:36.821Z,48.08
2017-05-17T08:40:46.776Z,48.11
2017-05-17T08:41:56.725Z,48.3
2017-05-17T08:43:06.674Z,48.3
2017-05-17T08:44:16.638Z,48.08
2017-05-17T08:45:26.592Z,48.28
2017-05-17T08:46:36.859Z,48.18
2017-05-17T08:47:46.498Z,48.3
2017-05-17T08:48:56.157Z,48.3
2017-05-17T08:50:06.127Z,48.49
2017-05-17T08:51:16.083Z,48.28
2017-05-17T08:52:26.046Z,48.38
2017-05-17T08:53:36.010Z,48.28
2017-05-17T08:54:45.330Z,48.28
2017-05-17T08:55:54.970Z,48.18
2017-05-17T08:57:04.918Z,48.47
2017-05-17T08:58:15.187Z,48.28
2017-05-17T08:59:25.453Z,48.28
2017-05-17T09:00:34.782Z,48.28
2017-05-17T09:01:44.133Z,48.38
2017-05-17T09:02:54.400Z,48.3
2017-05-17T09:04:04.676Z,48.3
2017-05-17T09:05:14.625Z,48.28
2017-05-17T09:06:24.261Z,48.38
2017-05-17T09:07:34.237Z,48.4
2017-05-17T09:08:44.191Z,48.28
2017-05-17T09:09:54.460Z,48.28
2017-05-17T09:11:04.410Z,48.08
2017-05-17T09:12:14.731Z,48.3
2017-05-17T09:13:25.009Z,48.18
2017-05-17T09:14:34.962Z,48.28
2017-05-17T09:15:45.237Z,48.38
2017-05-17T09:16:55.194Z,48.28
2017-05-17T09:18:05.469Z,48.76
2017-05-17T09:19:15.425Z,49.07
2017-05-17T09:20:24.753Z,49.46
2017-05-17T09:21:34.704Z,49.37
2017-05-17T09:22:44.972Z,49.55
2017-05-17T09:23:55.242Z,49.46
2017-05-17T09:25:05.186Z,49.55
2017-05-17T09:26:15.138Z,49.84
2017-05-17T09:27:25.417Z,49.75
2017-05-17T09:28:35.054Z,50.13
2017-05-17T09:29:45.325Z,49.37
2017-05-17T09:30:55.286Z,49.46
2017-05-17T09:32:05.556Z,49.75
2017-05-17T09:33:15.512Z,49.55
2017-05-17T09:34:25.468Z,49.75
2017-05-17T09:35:35.422Z,50.42
2017-05-17T09:36:45.378Z,49.94
2017-05-17T09:37:55.646Z,49.65
2017-05-17T09:39:05.914Z,50.23
2017-05-17T09:40:15.874Z,50.42
2017-05-17T09:41:25.824Z,49.65
2017-05-17T09:42:35.478Z,50.04
2017-05-17T09:43:45.444Z,50.32
2017-05-17T09:44:55.721Z,49.84
2017-05-17T09:46:05.682Z,50.13
2017-05-17T09:47:15.375Z,49.91
2017-05-17T09:48:25.646Z,50.04
2017-05-17T09:49:35.603Z,50.32
2017-05-17T09:50:45.556Z,50.13
2017-05-17T09:51:55.824Z,50.04
2017-05-17T09:53:06.091Z,50.23
2017-05-17T09:54:15.732Z,50.32
2017-05-17T09:55:25.685Z,50.42
2017-05-17T09:56:35.634Z,50.32
2017-05-17T09:57:45.640Z,49.94
2017-05-17T09:58:55.918Z,49.65
2017-05-17T10:00:06.183Z,50.13
2017-05-17T10:01:16.445Z,49.75
2017-05-17T10:02:26.713Z,49.65
2017-05-17T10:03:36.666Z,50.42
2017-05-17T10:04:46.303Z,50.04
2017-05-17T10:05:56.254Z,50.23
2017-05-17T10:07:06.210Z,49.94
2017-05-17T10:08:16.482Z,50.23
2017-05-17T10:09:26.749Z,49.84
2017-05-17T10:10:36.697Z,50.23
2017-05-17T10:11:46.656Z,50.52
2017-05-17T10:12:56.930Z,50.32
2017-05-17T10:14:06.883Z,50.04
2017-05-17T10:15:16.526Z,50.23
2017-05-17T10:16:26.796Z,50.04
2017-05-17T10:17:36.435Z,50.71
2017-05-17T10:18:46.388Z,50.32
2017-05-17T10:19:56.347Z,50.42
2017-05-17T10:21:06.303Z,51.1
2017-05-17T10:22:16.258Z,50.62
2017-05-17T10:23:25.904Z,50.81
2017-05-17T10:24:35.850Z,50.71
2017-05-17T10:25:45.802Z,50.13
2017-05-17T10:26:55.491Z,50.13
2017-05-17T10:28:05.758Z,50.13
2017-05-17T10:29:15.405Z,50.42
2017-05-17T10:30:25.041Z,50.81
2017-05-17T10:31:34.989Z,50.9
2017-05-17T10:32:45.256Z,50.81
2017-05-17T10:33:55.522Z,50.81
2017-05-17T10:35:05.792Z,50.62
2017-05-17T10:36:16.072Z,50.71
2017-05-17T10:37:26.032Z,51.1
2017-05-17T10:38:36.299Z,51
2017-05-17T10:39:46.576Z,50.62
2017-05-17T10:40:56.216Z,50.81
2017-05-17T10:42:06.167Z,50.81
2017-05-17T10:43:16.441Z,50.71
2017-05-17T10:44:26.713Z,50.71
2017-05-17T10:45:36.662Z,50.71
2017-05-17T10:46:46.615Z,51.1
2017-05-17T10:47:56.580Z,51.2
2017-05-17T10:49:06.535Z,51.97
2017-05-17T10:50:16.489Z,51.97
2017-05-17T10:51:26.771Z,52.35
2017-05-17T10:52:37.085Z,52.25
2017-05-17T10:53:47.042Z,52.73
2017-05-17T10:54:56.994Z,52.35
2017-05-17T10:56:06.944Z,52.25
2017-05-17T10:57:16.897Z,52.25
2017-05-17T10:58:26.853Z,52.83
2017-05-17T10:59:37.119Z,52.93
2017-05-17T11:00:47.398Z,52.83
2017-05-17T11:01:57.349Z,52.06
2017-05-17T11:03:07.618Z,52.64
2017-05-17T11:04:17.579Z,52.73
2017-05-17T11:05:27.901Z,52.93
2017-05-17T11:06:38.185Z,52.25
2017-05-17T11:07:48.514Z,52.83
2017-05-17T11:08:58.471Z,52.35
2017-05-17T11:10:08.423Z,52.64
2017-05-17T11:11:18.370Z,51.97
2017-05-17T11:12:28.013Z,52.16
2017-05-17T11:13:37.967Z,52.16
2017-05-17T11:14:47.924Z,52.73
2017-05-17T11:15:57.873Z,51.97
2017-05-17T11:17:08.144Z,51.97
2017-05-17T11:18:18.420Z,52.45
2017-05-17T11:19:28.371Z,52.35
2017-05-17T11:20:38.320Z,52.35
2017-05-17T11:21:47.647Z,51.58
2017-05-17T11:22:57.906Z,51.77
2017-05-17T11:24:07.855Z,52.06
2017-05-17T11:25:17.810Z,52.06
2017-05-17T11:26:28.140Z,51.77
2017-05-17T11:27:38.417Z,51.68
2017-05-17T11:28:48.368Z,51.87
2017-05-17T11:29:58.338Z,51.29
2017-05-17T11:31:07.982Z,51.68
2017-05-17T11:32:17.933Z,51.48
2017-05-17T11:33:27.886Z,51.68
2017-05-17T11:34:37.529Z,51.68
2017-05-17T11:35:47.793Z,51.77
2017-05-17T11:36:57.742Z,52.35
2017-05-17T11:38:07.066Z,52.45
2017-05-17T11:39:16.699Z,51.87
2017-05-17T11:40:26.333Z,51.87
2017-05-17T11:41:36.288Z,51.48
2017-05-17T11:42:46.557Z,52.35
2017-05-17T11:43:56.529Z,51.97
2017-05-17T11:45:06.172Z,51.48
2017-05-17T11:46:16.122Z,51.68
2017-05-17T11:47:25.769Z,51.77
2017-05-17T11:48:35.725Z,51.77
2017-05-17T11:49:46.011Z,51.68
2017-05-17T11:50:55.652Z,51.97
2017-05-17T11:52:04.659Z,51.97
2017-05-17T11:53:14.614Z,52.25
2017-05-17T11:54:24.572Z,51.87
2017-05-17T11:55:34.535Z,52.45
2017-05-17T11:56:44.175Z,52.16
2017-05-17T11:57:53.885Z,52.45
2017-05-17T11:59:04.148Z,52.45
2017-05-17T12:00:14.098Z,51.87
2017-05-17T12:01:24.046Z,51.97
2017-05-17T12:02:34.319Z,51.97
2017-05-17T12:03:44.283Z,51.48
2017-05-17T12:04:54.543Z,52.25
2017-05-17T12:06:04.507Z,52.06
2017-05-17T12:07:14.155Z,51.97
2017-05-17T12:08:24.107Z,51.48
2017-05-17T12:09:34.058Z,51.58
2017-05-17T12:10:44.034Z,51.48
2017-05-17T12:11:53.999Z,51.87
2017-05-17T12:13:03.955Z,51.87
2017-05-17T12:14:13.596Z,51.39
2017-05-17T12:15:23.563Z,51.48
2017-05-17T12:16:33.514Z,51.58
2017-05-17T12:17:43.787Z,51.58
2017-05-17T12:18:53.741Z,51.68
2017-05-17T12:20:03.692Z,51.58
2017-05-17T12:21:13.645Z,51
2017-05-17T12:22:23.596Z,51.48
2017-05-17T12:23:33.556Z,51.58
2017-05-17T12:24:43.200Z,51.87
2017-05-17T12:25:53.169Z,51.48
2017-05-17T12:27:02.816Z,51.58
2017-05-17T12:28:13.095Z,51.58
2017-05-17T12:29:23.056Z,51.77
2017-05-17T12:30:33.083Z,51.68
2017-05-17T12:31:43.038Z,51.77
2017-05-17T12:32:53.311Z,51.29
2017-05-17T12:34:03.579Z,52.16
2017-05-17T12:35:13.856Z,51.68
2017-05-17T12:36:24.122Z,51.58
2017-05-17T12:37:34.069Z,51.39
2017-05-17T12:38:44.023Z,51.48
2017-05-17T12:39:54.294Z,51.58
2017-05-17T12:41:04.252Z,51.58
2017-05-17T12:42:14.674Z,51.97
2017-05-17T12:43:24.314Z,51.39
2017-05-17T12:44:34.583Z,51.39
2017-05-17T12:45:44.224Z,51.29
2017-05-17T12:46:54.498Z,51.77
2017-05-17T12:48:04.775Z,51.58
2017-05-17T12:49:15.037Z,51.58
2017-05-17T12:50:25.310Z,51.48
2017-05-17T12:51:34.950Z,51.29
2017-05-17T12:52:45.215Z,51.39
2017-05-17T12:53:55.166Z,51.58
2017-05-17T12:55:05.434Z,51.58
2017-05-17T12:56:15.384Z,51.87
2017-05-17T12:57:25.346Z,51.58
2017-05-17T12:58:35.610Z,51.77
2017-05-17T12:59:45.563Z,51.87
2017-05-17T13:00:55.838Z,51.48
2017-05-17T13:02:05.788Z,51.39
2017-05-17T13:03:15.742Z,51.39
2017-05-17T13:04:25.379Z,51.77
2017-05-17T13:05:34.721Z,51.48
2017-05-17T13:06:44.983Z,51.58
2017-05-17T13:07:54.614Z,51.77
2017-05-17T13:09:04.260Z,52.35
2017-05-17T13:10:14.538Z,51.48
2017-05-17T13:11:24.487Z,51.97
2017-05-17T13:12:34.121Z,52.06
2017-05-17T13:13:44.394Z,51.77
2017-05-17T13:14:54.661Z,51.68
2017-05-17T13:16:04.623Z,51.87
2017-05-17T13:17:14.887Z,51.7
2017-05-17T13:18:24.837Z,51.8
2017-05-17T13:19:34.479Z,51.32
2017-05-17T13:20:44.436Z,51.41
2017-05-17T13:21:54.389Z,51.32
2017-05-17T13:23:04.653Z,51.61
2017-05-17T13:24:14.606Z,51.51
2017-05-17T13:25:24.571Z,51.29
2017-05-17T13:26:34.846Z,51.58
2017-05-17T13:27:45.117Z,51.58
2017-05-17T13:28:55.064Z,51.61
2017-05-17T13:30:05.336Z,51.39
2017-05-17T13:31:15.283Z,51.48
2017-05-17T13:32:24.921Z,51.1
2017-05-17T13:33:35.203Z,51.48
2017-05-17T13:34:44.840Z,51.48
2017-05-17T13:35:54.798Z,50.9
2017-05-17T13:37:04.753Z,51.48
2017-05-17T13:38:15.012Z,51.29
2017-05-17T13:39:24.658Z,51.2
2017-05-17T13:40:34.608Z,51.39
2017-05-17T13:41:44.243Z,51.29
2017-05-17T13:42:53.566Z,50.9
2017-05-17T13:44:03.523Z,51.58
2017-05-17T13:45:13.794Z,51.2
2017-05-17T13:46:22.802Z,51.39
2017-05-17T13:47:33.068Z,51.58
2017-05-17T13:48:43.345Z,51.39
2017-05-17T13:49:53.606Z,50.81
2017-05-17T13:51:03.562Z,50.81
2017-05-17T13:52:13.852Z,51
2017-05-17T13:53:23.511Z,51.1
2017-05-17T13:54:33.469Z,50.9
2017-05-17T13:55:43.424Z,51.1
2017-05-17T13:56:53.692Z,51.1
2017-05-17T13:58:03.671Z,51.2
2017-05-17T13:59:13.321Z,51.1
2017-05-17T14:00:23.275Z,51
2017-05-17T14:01:33.229Z,50.71
2017-05-17T14:02:42.870Z,51.2
2017-05-17T14:03:52.507Z,51.2
2017-05-17T14:05:01.837Z,50.81
2017-05-17T14:06:11.795Z,51
2017-05-17T14:07:21.426Z,50.9
2017-05-17T14:08:31.072Z,50.71
2017-05-17T14:09:40.717Z,51.1
2017-05-17T14:10:51.031Z,51.2
2017-05-17T14:12:00.985Z,51.2
2017-05-17T14:13:10.948Z,51.1
2017-05-17T14:14:21.215Z,50.71
2017-05-17T14:15:30.855Z,51.2
2017-05-17T14:16:40.802Z,51.1
2017-05-17T14:17:51.099Z,50.9
2017-05-17T14:19:00.741Z,50.9
2017-05-17T14:20:10.060Z,50.9
2017-05-17T14:21:20.011Z,50.71
2017-05-17T14:22:29.675Z,50.9
2017-05-17T14:23:39.649Z,50.62
2017-05-17T14:24:49.607Z,50.9
2017-05-17T14:25:59.568Z,50.42
2017-05-17T14:27:09.526Z,50.42
2017-05-17T14:28:19.482Z,50.32
2017-05-17T14:29:29.128Z,50.13
2017-05-17T14:30:39.398Z,50.13
2017-05-17T14:31:49.671Z,50.13
2017-05-17T14:32:59.938Z,51
2017-05-17T14:34:09.947Z,51.29
2017-05-17T14:35:19.585Z,51.2
2017-05-17T14:36:29.229Z,51.39
2017-05-17T14:37:39.498Z,51.29
2017-05-17T14:38:49.142Z,51.48
2017-05-17T14:39:59.425Z,50.42
2017-05-17T14:41:09.064Z,49.65
2017-05-17T14:42:19.334Z,50.32
2017-05-17T14:43:28.974Z,49.27
2017-05-17T14:44:39.247Z,50.13
2017-05-17T14:45:49.512Z,50.52
2017-05-17T14:46:59.775Z,50.32
2017-05-17T14:48:09.728Z,50.62
2017-05-17T14:49:19.369Z,50.13
2017-05-17T14:50:29.639Z,50.52
2017-05-17T14:51:39.902Z,50.42
2017-05-17T14:52:49.851Z,50.42
2017-05-17T14:54:00.124Z,50.13
2017-05-17T14:55:10.079Z,49.94
2017-05-17T14:56:19.713Z,50.32
2017-05-17T14:57:29.366Z,50.32
2017-05-17T14:58:39.633Z,50.23
2017-05-17T14:59:49.902Z,50.13
2017-05-17T15:00:59.546Z,50.13
2017-05-17T15:02:09.495Z,49.94
2017-05-17T15:03:19.440Z,49.94
2017-05-17T15:04:29.090Z,49.84